createdAt,value
2019-02-26T00:03:04.536Z,40.88
2019-02-26T00:07:07.042Z,36.55
2019-02-26T00:11:13.422Z,41.53
2019-02-26T00:15:16.828Z,39.67
2019-02-26T00:19:20.236Z,37.65
2019-02-26T00:23:25.345Z,36.25
2019-02-26T00:27:30.623Z,41.75
2019-02-26T00:31:33.842Z,37.60
2019-02-26T00:35:39.335Z,43.68
2019-02-26T00:39:42.302Z,35.13
2019-02-26T00:43:45.705Z,33.63
2019-02-26T00:47:49.124Z,36.08
2019-02-26T00:51:52.854Z,38.28
2019-02-26T00:55:58.461Z,39.37
2019-02-26T01:00:03.405Z,37.35
2019-02-26T01:04:06.436Z,42.80
2019-02-26T01:08:12.364Z,45.75
2019-02-26T01:12:16.635Z,43.43
2019-02-26T01:16:20.152Z,44.08
2019-02-26T01:20:25.537Z,44.93
2019-02-26T01:24:30.468Z,39.80
2019-02-26T01:28:33.555Z,39.23
2019-02-26T01:32:36.958Z,41.17
2019-02-26T01:36:42.631Z,45.23
2019-02-26T01:40:48.454Z,40.20
2019-02-26T01:44:51.585Z,44.02
2019-02-26T01:48:55.201Z,39.33
2019-02-26T01:53:01.064Z,42.17
2019-02-26T01:57:04.531Z,42.50
2019-02-26T02:01:09.972Z,46.83
2019-02-26T02:05:13.035Z,45.33
2019-02-26T02:09:18.673Z,47.13
2019-02-26T02:13:25.947Z,46.98
2019-02-26T02:17:28.687Z,46.00
2019-02-26T02:21:33.788Z,38.33
2019-02-26T02:25:38.742Z,41.92
2019-02-26T02:29:45.706Z,44.00
2019-02-26T02:33:47.867Z,43.08
2019-02-26T02:37:53.549Z,43.03
2019-02-26T02:41:57.435Z,46.43
2019-02-26T02:46:01.327Z,43.52
2019-02-26T02:50:09.192Z,40.20
2019-02-26T02:54:15.348Z,32.15
2019-02-26T02:58:20.167Z,42.53
2019-02-26T03:02:23.083Z,42.53
2019-02-26T03:06:28.103Z,43.00
2019-02-26T03:10:34.190Z,42.93
2019-02-26T03:14:39.114Z,41.70
2019-02-26T03:18:41.729Z,44.25
2019-02-26T03:22:48.748Z,43.45
2019-02-26T03:26:50.192Z,43.23
2019-02-26T03:30:53.614Z,51.53
2019-02-26T03:35:02.152Z,44.10
2019-02-26T03:39:02.844Z,45.15
2019-02-26T03:43:07.739Z,40.90
2019-02-26T03:47:11.328Z,44.40
2019-02-26T03:51:17.131Z,44.33
2019-02-26T03:55:19.993Z,49.93
2019-02-26T03:59:23.409Z,42.20
2019-02-26T04:03:26.915Z,40.03
2019-02-26T04:07:33.219Z,45.03
2019-02-26T04:11:35.468Z,40.77
2019-02-26T04:15:38.942Z,41.17
2019-02-26T04:19:44.523Z,43.75
2019-02-26T04:23:47.539Z,43.80
2019-02-26T04:27:56.365Z,44.80
2019-02-26T04:32:20.965Z,42.77
2019-02-26T04:36:28.435Z,45.53
2019-02-26T04:40:36.317Z,42.73
2019-02-26T04:45:05.866Z,49.63
2019-02-26T04:49:08.408Z,54.03
2019-02-26T04:53:11.722Z,40.98
2019-02-26T04:57:15.036Z,55.97
2019-02-26T05:01:19.206Z,54.53
2019-02-26T05:05:25.169Z,54.75
2019-02-26T05:09:29.807Z,50.27
2019-02-26T05:13:34.625Z,59.48
2019-02-26T05:17:38.024Z,55.45
2019-02-26T05:21:41.519Z,50.27
2019-02-26T05:25:44.937Z,50.30
2019-02-26T05:29:49.641Z,53.83
2019-02-26T05:33:55.329Z,53.93
2019-02-26T05:38:01.020Z,47.73
2019-02-26T05:42:06.175Z,45.90
2019-02-26T05:46:08.844Z,44.00
2019-02-26T05:50:16.186Z,52.07
2019-02-26T05:54:20.818Z,50.70
2019-02-26T05:58:22.430Z,47.93
2019-02-26T06:02:25.845Z,47.13
2019-02-26T06:06:29.254Z,45.33
2019-02-26T06:10:32.723Z,55.27
2019-02-26T06:14:39.003Z,57.67
2019-02-26T06:18:42.044Z,54.97
2019-02-26T06:22:46.285Z,59.07
2019-02-26T06:26:49.677Z,56.43
2019-02-26T06:30:54.997Z,64.20
2019-02-26T06:34:58.239Z,58.56
2019-02-26T06:39:03.691Z,57.70
2019-02-26T06:43:06.791Z,53.37
2019-02-26T06:47:10.200Z,55.25
2019-02-26T06:51:13.622Z,57.27
2019-02-26T06:55:17.033Z,54.50
2019-02-26T06:59:25.174Z,51.75
2019-02-26T07:03:28.856Z,52.55
2019-02-26T07:07:32.566Z,47.50
2019-02-26T07:11:37.903Z,46.77
2019-02-26T07:15:43.066Z,47.13
2019-02-26T07:19:46.378Z,45.85
2019-02-26T07:23:51.634Z,46.65
2019-02-26T07:27:56.340Z,48.98
2019-02-26T07:32:00.196Z,46.37
2019-02-26T07:36:04.169Z,49.55
2019-02-26T07:40:13.015Z,51.73
2019-02-26T07:44:18.638Z,55.20
2019-02-26T07:48:23.356Z,49.38
2019-02-26T07:52:28.285Z,56.88
2019-02-26T07:56:32.736Z,60.98
2019-02-26T08:00:37.687Z,58.38
2019-02-26T08:04:43.506Z,62.17
2019-02-26T08:08:48.814Z,56.45
2019-02-26T08:12:51.795Z,57.10
2019-02-26T08:16:56.210Z,57.65
2019-02-26T08:21:02.451Z,60.40
2019-02-26T08:25:07.215Z,60.95
2019-02-26T08:29:12.468Z,60.28
2019-02-26T08:33:16.007Z,62.13
2019-02-26T08:37:19.349Z,62.10
2019-02-26T08:41:22.717Z,60.98
2019-02-26T08:45:26.132Z,65.85
2019-02-26T08:49:29.541Z,61.65
2019-02-26T08:53:32.955Z,58.33
2019-02-26T08:57:36.354Z,64.70
2019-02-26T09:01:39.678Z,65.73
2019-02-26T09:05:43.068Z,63.60
2019-02-26T09:09:48.105Z,61.47
2019-02-26T09:13:51.626Z,58.50
2019-02-26T09:17:55.040Z,55.45
2019-02-26T09:21:58.764Z,51.98
2019-02-26T09:26:04.453Z,51.55
2019-02-26T09:30:11.746Z,49.53
2019-02-26T09:34:15.638Z,46.90
2019-02-26T09:38:22.493Z,47.78
2019-02-26T09:42:25.654Z,50.00
2019-02-26T09:46:31.205Z,48.23
2019-02-26T09:50:36.736Z,48.15
2019-02-26T09:54:42.696Z,48.87
2019-02-26T09:58:46.507Z,50.15
2019-02-26T10:02:51.900Z,50.23
2019-02-26T10:06:54.888Z,47.98
2019-02-26T10:11:00.315Z,49.70
2019-02-26T10:15:05.296Z,48.35
2019-02-26T10:19:10.215Z,44.77
2019-02-26T10:23:13.725Z,44.48
2019-02-26T10:27:17.157Z,43.73
2019-02-26T10:31:24.120Z,74.20
2019-02-26T10:35:33.180Z,44.48
2019-02-26T10:39:32.165Z,40.75
2019-02-26T10:43:35.577Z,37.40
2019-02-26T10:47:38.908Z,43.52
2019-02-26T10:51:43.050Z,34.78
2019-02-26T10:55:46.537Z,29.23
2019-02-26T10:59:49.953Z,32.13
2019-02-26T11:03:55.182Z,23.32
2019-02-26T11:08:01.872Z,27.22
2019-02-26T11:12:06.005Z,28.23
2019-02-26T11:16:08.822Z,32.90
2019-02-26T11:20:14.765Z,40.90
2019-02-26T11:24:18.062Z,36.58
2019-02-26T11:28:21.394Z,39.33
2019-02-26T11:32:24.707Z,40.73
2019-02-26T11:36:30.406Z,38.10
2019-02-26T11:40:33.686Z,40.67
2019-02-26T11:44:37.282Z,42.25
2019-02-26T11:48:40.701Z,48.35
2019-02-26T11:52:44.101Z,41.75
2019-02-26T11:56:49.812Z,44.08
2019-02-26T12:00:54.304Z,47.75
2019-02-26T12:04:59.903Z,49.25
2019-02-26T12:09:05.479Z,49.80
2019-02-26T12:13:08.214Z,48.10
2019-02-26T12:17:11.689Z,38.67
2019-02-26T12:21:15.237Z,40.15
2019-02-26T12:25:18.645Z,40.88
2019-02-26T12:29:23.576Z,43.95
2019-02-26T12:33:27.315Z,39.20
2019-02-26T12:37:31.330Z,43.14
2019-02-26T12:41:36.585Z,46.48
2019-02-26T12:45:40.675Z,40.07
2019-02-26T12:49:45.126Z,43.00
2019-02-26T12:53:50.081Z,40.97
2019-02-26T12:57:56.472Z,39.15
2019-02-26T13:01:58.749Z,40.10
2019-02-26T13:06:05.162Z,41.30
2019-02-26T13:10:13.455Z,43.25
2019-02-26T13:14:17.866Z,39.53
2019-02-26T13:18:21.293Z,41.53
2019-02-26T13:22:24.626Z,43.55
2019-02-26T13:26:27.984Z,45.10
2019-02-26T13:30:31.437Z,45.43
2019-02-26T13:34:34.826Z,40.92
2019-02-26T13:38:44.837Z,44.83
2019-02-26T13:42:50.229Z,45.17
2019-02-26T13:46:48.535Z,42.17
2019-02-26T13:50:51.989Z,45.83
2019-02-26T13:54:55.303Z,46.60
2019-02-26T13:58:58.776Z,44.88
2019-02-26T14:03:04.105Z,42.10
2019-02-26T14:07:07.325Z,45.78
2019-02-26T14:11:10.731Z,42.70
2019-02-26T14:15:27.129Z,47.00
2019-02-26T14:19:30.666Z,46.68
2019-02-26T14:23:35.165Z,44.15
2019-02-26T14:27:39.219Z,41.85
2019-02-26T14:31:42.628Z,42.90
2019-02-26T14:35:46.035Z,45.95
2019-02-26T14:39:49.546Z,40.60
2019-02-26T14:43:52.953Z,33.63
2019-02-26T14:47:56.367Z,32.08
2019-02-26T14:52:00.834Z,33.02
2019-02-26T14:56:04.219Z,33.80
2019-02-26T15:00:16.527Z,35.43
2019-02-26T15:04:20.035Z,35.58
2019-02-26T15:08:23.546Z,37.40
2019-02-26T15:12:26.958Z,33.73
2019-02-26T15:16:30.914Z,35.55
2019-02-26T15:20:34.698Z,42.48
2019-02-26T15:24:38.414Z,52.10
2019-02-26T15:28:41.925Z,34.67
2019-02-26T15:32:45.539Z,41.50
2019-02-26T15:36:48.860Z,34.23
2019-02-26T15:40:53.378Z,39.60
2019-02-26T15:44:57.671Z,41.20
2019-02-26T15:49:01.946Z,35.92
2019-02-26T15:53:07.261Z,36.68
2019-02-26T15:57:10.599Z,39.20
2019-02-26T16:01:15.213Z,39.63
2019-02-26T16:05:19.657Z,44.40
2019-02-26T16:09:23.082Z,43.20
2019-02-26T16:13:26.491Z,46.37
2019-02-26T16:17:29.857Z,43.00
2019-02-26T16:21:33.310Z,40.92
2019-02-26T16:25:36.722Z,51.15
2019-02-26T16:29:40.139Z,48.45
2019-02-26T16:33:46.387Z,45.12
2019-02-26T16:37:49.404Z,47.30
2019-02-26T16:41:52.811Z,47.27
2019-02-26T16:45:56.222Z,43.75
2019-02-26T16:50:11.921Z,47.00
2019-02-26T16:54:07.388Z,46.65
2019-02-26T16:58:09.932Z,53.08
2019-02-26T17:02:13.259Z,44.53
2019-02-26T17:06:20.501Z,45.98
2019-02-26T17:10:23.055Z,44.25
2019-02-26T17:14:26.407Z,43.75
2019-02-26T17:18:29.716Z,40.20
2019-02-26T17:22:33.045Z,44.50
2019-02-26T17:26:36.367Z,44.53
2019-02-26T17:30:39.762Z,42.98
2019-02-26T17:34:43.067Z,47.50
2019-02-26T17:38:46.374Z,42.48
2019-02-26T17:42:51.337Z,62.45
2019-02-26T17:46:55.346Z,39.45
2019-02-26T17:50:58.769Z,38.02
2019-02-26T17:55:02.129Z,47.35
2019-02-26T17:59:05.465Z,45.85
2019-02-26T18:03:08.875Z,36.65
2019-02-26T18:07:12.387Z,47.27
2019-02-26T18:11:15.795Z,79.66
2019-02-26T18:15:20.861Z,25.40
2019-02-26T18:19:24.228Z,37.80
2019-02-26T18:23:27.562Z,39.85
2019-02-26T18:27:31.152Z,38.42
2019-02-26T18:31:34.577Z,42.70
2019-02-26T18:35:37.991Z,44.18
2019-02-26T18:39:41.814Z,42.40
2019-02-26T18:43:47.521Z,39.58
2019-02-26T18:47:50.472Z,40.48
2019-02-26T18:51:53.886Z,46.35
2019-02-26T18:55:57.392Z,42.73
2019-02-26T19:00:00.824Z,45.78
2019-02-26T19:04:04.207Z,39.73
2019-02-26T19:08:07.616Z,46.95
2019-02-26T19:12:11.134Z,38.80
2019-02-26T19:16:14.541Z,48.25
2019-02-26T19:20:23.684Z,44.54
2019-02-26T19:24:27.103Z,46.65
2019-02-26T19:28:30.500Z,44.45
2019-02-26T19:32:34.016Z,50.43
2019-02-26T19:36:37.524Z,51.02
2019-02-26T19:40:43.737Z,35.17
2019-02-26T19:44:47.067Z,37.10
2019-02-26T19:48:50.517Z,38.58
2019-02-26T19:52:56.987Z,43.58
2019-02-26T19:56:59.074Z,41.48
2019-02-26T20:01:02.480Z,42.13
2019-02-26T20:05:09.523Z,36.77
2019-02-26T20:09:14.524Z,41.77
2019-02-26T20:13:17.936Z,37.96
2019-02-26T20:17:21.342Z,37.67
2019-02-26T20:21:25.781Z,31.77
2019-02-26T20:25:29.180Z,34.57
2019-02-26T20:29:32.591Z,40.53
2019-02-26T20:33:37.028Z,38.38
2019-02-26T20:37:40.742Z,38.17
2019-02-26T20:41:44.095Z,30.45
2019-02-26T20:45:48.691Z,31.27
2019-02-26T20:49:52.507Z,32.48
2019-02-26T20:53:56.218Z,35.75
2019-02-26T20:57:59.628Z,30.82
2019-02-26T21:02:03.045Z,35.54
2019-02-26T21:06:06.360Z,36.80
2019-02-26T21:10:14.997Z,29.80
2019-02-26T21:14:16.952Z,32.17
2019-02-26T21:18:20.360Z,30.05
2019-02-26T21:22:23.767Z,36.35
2019-02-26T21:26:27.067Z,38.70
2019-02-26T21:30:30.381Z,31.52
2019-02-26T21:34:33.789Z,48.25
2019-02-26T21:38:38.782Z,41.33
2019-02-26T21:42:42.250Z,31.60
2019-02-26T21:46:45.655Z,33.02
2019-02-26T21:50:49.062Z,43.50
2019-02-26T21:54:52.472Z,42.50
2019-02-26T21:58:56.947Z,31.23
2019-02-26T22:03:00.930Z,32.03
2019-02-26T22:07:04.350Z,29.77
2019-02-26T22:11:07.780Z,34.03
2019-02-26T22:15:13.710Z,33.83
2019-02-26T22:19:17.115Z,37.80
2019-02-26T22:23:20.443Z,38.05
2019-02-26T22:27:23.839Z,40.94
2019-02-26T22:31:28.945Z,41.58
2019-02-26T22:35:33.053Z,51.73
2019-02-26T22:39:36.707Z,34.43
2019-02-26T22:43:40.007Z,37.15
2019-02-26T22:47:44.553Z,39.75
2019-02-26T22:51:47.982Z,46.10
2019-02-26T22:55:51.395Z,44.00
2019-02-26T22:59:54.786Z,52.63
2019-02-26T23:03:58.205Z,48.65
2019-02-26T23:08:01.615Z,39.63
2019-02-26T23:12:05.663Z,49.73
2019-02-26T23:16:09.153Z,41.65
2019-02-26T23:20:12.558Z,53.40
2019-02-26T23:24:16.070Z,38.13
2019-02-26T23:28:21.700Z,42.00
2019-02-26T23:32:24.525Z,38.77
2019-02-26T23:36:28.602Z,42.93
2019-02-26T23:40:32.039Z,47.53
2019-02-26T23:44:35.474Z,51.33
2019-02-26T23:48:40.977Z,47.93
2019-02-26T23:52:43.877Z,51.13
2019-02-26T23:56:47.231Z,36.63
